Time;durP1;ratioP1;P1;durP2;ratioP2;P2;SDS_P1;SDS_P2;PMS_P1;PMS_P2;Temp;Humidity;BMP_temperature;BMP_pressure;BME280_temperature;BME280_humidity;BME280_pressure;Samples;Min_cycle;Max_cycle;Signal;HPM_P1;HPM_P2
2022/11/29 00:01:40;;;;;;;126.32;29.27;;;;;;;7.41;100.00;101413.16;5006345;28;20046;-76
2022/11/29 00:04:10;;;;;;;156.10;28.95;;;;;;;7.41;100.00;101412.28;4990318;28;20053;-76
2022/11/29 00:06:39;;;;;;;144.13;30.30;;;;;;;7.39;100.00;101404.38;4977787;28;20076;-76
2022/11/29 00:09:10;;;;;;;137.25;28.55;;;;;;;7.40;100.00;101411.38;4968665;28;20042;-76
2022/11/29 00:14:29;;;;;;;201.73;33.83;;;;;;;7.40;100.00;101418.34;5003962;28;20049;-76
2022/11/29 00:17:00;;;;;;;140.80;30.38;;;;;;;7.40;100.00;101411.38;5008487;28;20289;-76
2022/11/29 00:19:31;;;;;;;138.27;29.60;;;;;;;7.41;100.00;101412.28;5003812;28;20081;-76
2022/11/29 00:22:01;;;;;;;150.17;33.27;;;;;;;7.40;100.00;101415.72;4991689;28;20046;-76
2022/11/29 00:24:31;;;;;;;224.85;35.53;;;;;;;7.42;100.00;101417.53;4951553;28;20296;-76
2022/11/29 00:27:00;;;;;;;199.52;37.00;;;;;;;7.41;100.00;101414.91;4993599;28;20042;-78
2022/11/29 00:29:29;;;;;;;148.55;31.30;;;;;;;7.41;100.00;101413.16;5002159;28;20045;-76
2022/11/29 00:31:58;;;;;;;219.50;37.10;;;;;;;7.43;100.00;101415.81;5006842;28;20042;-76
2022/11/29 00:34:27;;;;;;;167.73;34.80;;;;;;;7.42;100.00;101414.91;5003287;28;20054;-76
2022/11/29 00:36:56;;;;;;;210.70;35.83;;;;;;;7.45;100.00;101415.84;5008185;28;20503;-76
2022/11/29 00:39:24;;;;;;;147.35;30.52;;;;;;;7.45;100.00;101423.69;4948048;28;20041;-76
2022/11/29 00:41:53;;;;;;;231.85;36.20;;;;;;;7.44;100.00;101422.81;5006497;28;20526;-76
2022/11/29 00:44:21;;;;;;;194.65;32.10;;;;;;;7.42;100.00;101428.03;4986838;28;20045;-76
2022/11/29 00:46:49;;;;;;;130.00;30.23;;;;;;;7.42;100.00;101425.41;4988576;28;20407;-76
2022/11/29 00:49:18;;;;;;;167.38;31.50;;;;;;;7.39;100.00;101420.09;4986885;28;20053;-76
2022/11/29 00:51:46;;;;;;;173.23;30.60;;;;;;;7.38;100.00;101433.16;4988615;28;20080;-76
2022/11/29 00:54:15;;;;;;;220.98;33.97;;;;;;;7.38;100.00;101425.28;4959904;28;20049;-76
2022/11/29 00:56:43;;;;;;;162.35;30.13;;;;;;;7.36;100.00;101420.00;5000633;28;20030;-76
2022/11/29 00:59:12;;;;;;;258.80;35.15;;;;;;;7.35;100.00;101415.63;4995724;28;20053;-76
2022/11/29 01:01:40;;;;;;;322.83;38.30;;;;;;;7.34;100.00;101423.44;5004261;28;20038;-76
2022/11/29 01:04:09;;;;;;;491.90;43.17;;;;;;;7.33;100.00;101414.69;4967793;28;20058;-76
2022/11/29 01:06:37;;;;;;;234.27;34.33;;;;;;;7.31;100.00;101411.13;5003491;28;20046;-76
2022/11/29 01:09:05;;;;;;;260.85;35.22;;;;;;;7.29;100.00;101419.81;4980328;28;20049;-78
2022/11/29 01:11:34;;;;;;;389.77;40.15;;;;;;;7.27;100.00;101422.38;4974237;28;20042;-78
2022/11/29 01:14:03;;;;;;;226.52;32.42;;;;;;;7.26;100.00;101423.25;5006066;28;20049;-78
2022/11/29 01:16:31;;;;;;;98.78;26.50;;;;;;;7.26;100.00;101424.97;5012448;28;20068;-78
2022/11/29 01:19:00;;;;;;;287.60;35.53;;;;;;;7.26;100.00;101422.34;4975313;28;20050;-77
2022/11/29 01:21:29;;;;;;;273.05;33.70;;;;;;;7.24;100.00;101424.97;4983877;28;20076;-77
2022/11/29 01:23:59;;;;;;;255.13;32.83;;;;;;;7.22;100.00;101426.63;4971555;28;20533;-77
2022/11/29 01:26:29;;;;;;;218.02;32.03;;;;;;;7.20;100.00;101428.31;4970475;28;20661;-77
2022/11/29 01:28:58;;;;;;;256.92;31.20;;;;;;;7.18;100.00;101430.91;4997544;28;20069;-77
2022/11/29 01:31:29;;;;;;;183.20;29.30;;;;;;;7.19;100.00;101431.81;4981696;28;20042;-77
2022/11/29 01:34:00;;;;;;;315.70;35.25;;;;;;;7.17;100.00;101444.84;4987084;28;20051;-77
2022/11/29 01:36:29;;;;;;;239.90;30.15;;;;;;;7.17;100.00;101438.75;4977529;28;20041;-77
2022/11/29 01:38:59;;;;;;;314.40;36.05;;;;;;;7.15;100.00;101440.44;4968608;28;20046;-77
2022/11/29 01:41:29;;;;;;;;;;;;;;;7.14;100.00;101438.66;4939960;28;20050;-77
2022/11/29 01:43:57;;;;;;;298.70;34.22;;;;;;;7.12;100.00;101440.34;4969093;28;19926;-77
2022/11/29 01:46:28;;;;;;;389.77;36.28;;;;;;;7.10;100.00;101442.03;4983306;28;20503;-77
2022/11/29 01:49:02;;;;;;;225.02;30.35;;;;;;;7.09;100.00;101445.50;4981604;28;20542;-77
2022/11/29 01:51:33;;;;;;;355.38;35.50;;;;;;;7.08;100.00;101448.97;4980847;28;20408;-77
2022/11/29 01:54:02;;;;;;;289.77;34.20;;;;;;;7.07;100.00;101449.81;4998380;28;20048;-77
2022/11/29 01:56:33;;;;;;;264.33;31.95;;;;;;;7.06;100.00;101450.66;4951517;28;20057;-77
2022/11/29 01:59:08;;;;;;;336.60;34.03;;;;;;;7.04;100.00;101458.47;4967471;28;20054;-77
2022/11/29 02:01:37;;;;;;;446.50;41.60;;;;;;;7.05;100.00;101459.34;4998644;28;20052;-77
2022/11/29 02:04:06;;;;;;;231.25;31.00;;;;;;;7.03;100.00;101460.22;4989554;28;20049;-77
2022/11/29 02:06:36;;;;;;;288.20;32.50;;;;;;;7.02;100.00;101447.94;5001937;28;20058;-78
2022/11/29 02:09:15;;;;;;;477.70;39.03;;;;;;;7.02;100.00;101452.31;5002833;28;20056;-77
2022/11/29 02:11:43;;;;;;;492.65;42.58;;;;;;;7.01;100.00;101458.38;4967571;28;20050;-77
2022/11/29 02:14:39;;;;;;;543.88;43.08;;;;;;;7.00;100.00;101454.88;5003759;28;20045;-76
2022/11/29 02:17:36;;;;;;;383.05;37.83;;;;;;;7.00;100.00;101460.13;4987801;28;20034;-76
2022/11/29 02:20:23;;;;;;;409.23;37.53;;;;;;;7.00;100.00;101457.50;5009076;28;20534;-77
2022/11/29 02:23:15;;;;;;;358.13;35.70;;;;;;;7.00;100.00;101454.00;5005321;28;20054;-77
2022/11/29 02:25:56;;;;;;;207.07;30.50;;;;;;;7.00;100.00;101462.75;4949799;28;20055;-77
2022/11/29 02:28:42;;;;;;;241.52;30.88;;;;;;;7.01;100.00;101459.28;4971782;28;20042;-76
2022/11/29 02:31:47;;;;;;;217.00;30.83;;;;;;;7.02;100.00;101462.78;4997093;28;20060;-77
2022/11/29 02:34:41;;;;;;;178.55;27.10;;;;;;;7.03;100.00;101460.22;4987449;28;20054;-78
2022/11/29 02:37:15;;;;;;;176.13;28.08;;;;;;;7.04;100.00;101468.97;5003074;28;20052;-77
2022/11/29 02:39:56;;;;;;;381.98;36.13;;;;;;;7.04;100.00;101468.97;5005012;28;20069;-77
2022/11/29 02:42:49;;;;;;;425.33;36.47;;;;;;;7.04;100.00;101471.59;4974179;28;20670;-77
2022/11/29 02:45:35;;;;;;;427.13;34.97;;;;;;;7.02;100.00;101471.53;5000761;28;20064;-77
2022/11/29 02:48:16;;;;;;;284.23;32.53;;;;;;;7.01;100.00;101467.16;5004056;28;20050;-77
2022/11/29 02:51:03;;;;;;;409.33;35.90;;;;;;;7.00;100.00;101474.97;4954386;28;20077;-77
2022/11/29 02:53:53;;;;;;;430.25;39.38;;;;;;;6.99;100.00;101489.81;4979865;28;20034;-77
2022/11/29 02:56:53;;;;;;;194.55;29.50;;;;;;;6.99;100.00;101487.19;5001551;28;20053;-77
2022/11/29 02:59:28;;;;;;;267.25;31.92;;;;;;;6.99;100.00;101487.19;4975936;28;20034;-76
2022/11/29 03:02:11;;;;;;;362.52;36.55;;;;;;;7.00;100.00;101483.72;5005397;28;20061;-77
2022/11/29 03:04:45;;;;;;;252.20;32.28;;;;;;;7.00;100.00;101482.84;5004329;28;20045;-76
2022/11/29 03:07:51;;;;;;;396.15;39.97;;;;;;;7.01;100.00;101495.06;5001857;28;20041;-76
2022/11/29 03:10:38;;;;;;;282.17;35.72;;;;;;;6.99;100.00;101488.91;4989902;28;20042;-77
2022/11/29 03:13:26;;;;;;;374.25;38.70;;;;;;;7.00;100.00;101502.06;4966836;28;20049;-76
2022/11/29 03:16:04;;;;;;;208.25;34.20;;;;;;;6.99;100.00;101495.06;5002156;28;20046;-77
2022/11/29 03:18:42;;;;;;;297.92;33.78;;;;;;;6.99;100.00;101492.44;5005804;28;20583;-77
2022/11/29 03:21:48;;;;;;;286.10;33.78;;;;;;;6.98;100.00;101498.50;5004368;28;20065;-77
2022/11/29 03:24:24;;;;;;;159.65;29.23;;;;;;;6.99;100.00;101496.75;4941077;29;20051;-77
2022/11/29 03:27:00;;;;;;;265.00;34.50;;;;;;;6.98;100.00;101501.13;4983513;28;20051;-77
2022/11/29 03:29:34;;;;;;;200.93;31.55;;;;;;;6.97;100.00;101507.19;4966280;28;20034;-76
2022/11/29 03:32:12;;;;;;;209.55;31.98;;;;;;;6.96;100.00;101508.06;5004670;28;20038;-77
2022/11/29 03:35:18;;;;;;;193.68;32.05;;;;;;;6.96;100.00;101507.19;5006862;28;20062;-76
2022/11/29 03:38:02;;;;;;;221.27;34.10;;;;;;;6.95;100.00;101511.50;4991076;28;20046;-76
2022/11/29 03:40:54;;;;;;;194.07;31.50;;;;;;;6.96;100.00;101515.91;5005465;28;20771;-76
2022/11/29 03:43:32;;;;;;;245.77;36.30;;;;;;;6.96;100.00;101513.28;5003723;28;20061;-78
2022/11/29 03:46:23;;;;;;;231.15;34.25;;;;;;;6.95;100.00;101511.50;4981702;28;20411;-78
2022/11/29 03:49:00;;;;;;;280.77;36.03;;;;;;;6.95;100.00;101513.25;5004555;28;20061;-78
2022/11/29 03:51:37;;;;;;;259.30;32.05;;;;;;;6.94;100.00;101515.00;5019488;28;20041;-76
2022/11/29 03:54:14;;;;;;;146.63;29.60;;;;;;;6.94;100.00;101522.84;5007488;28;20077;-76
2022/11/29 03:56:43;;;;;;;331.65;37.70;;;;;;;6.94;100.00;101512.38;5037175;28;20038;-77
2022/11/29 03:59:33;;;;;;;177.35;30.23;;;;;;;6.94;100.00;101519.34;4998922;28;20034;-78
2022/11/29 04:02:17;;;;;;;330.33;37.83;;;;;;;6.94;100.00;101519.34;4997007;28;20050;-78
2022/11/29 04:05:01;;;;;;;254.38;33.42;;;;;;;6.92;100.00;101529.78;5005549;28;20061;-78
2022/11/29 04:08:07;;;;;;;297.25;35.17;;;;;;;6.91;100.00;101530.59;4987667;28;20513;-78
2022/11/29 04:11:13;;;;;;;186.38;30.55;;;;;;;6.89;100.00;101524.44;5000593;28;20407;-77
2022/11/29 04:13:52;;;;;;;283.02;36.88;;;;;;;6.88;100.00;101529.63;5006697;28;20046;-78
2022/11/29 04:16:24;;;;;;;307.27;34.58;;;;;;;6.86;100.00;101524.34;4994955;28;20042;-77
2022/11/29 04:19:18;;;;;;;151.48;27.95;;;;;;;6.86;100.00;101528.69;4998514;28;20042;-78
2022/11/29 04:22:11;;;;;;;257.48;33.85;;;;;;;6.84;100.00;101531.25;5009633;28;20057;-77
2022/11/29 04:24:45;;;;;;;227.32;32.63;;;;;;;6.84;100.00;101523.41;5008106;28;20776;-77
2022/11/29 04:27:14;;;;;;;218.43;31.10;;;;;;;6.82;100.00;101533.88;4998593;28;20057;-78
2022/11/29 04:30:07;;;;;;;146.25;28.75;;;;;;;6.82;100.00;101519.84;5008496;28;20546;-78
2022/11/29 04:33:03;;;;;;;124.28;28.20;;;;;;;6.81;100.00;101520.72;4996062;28;20047;-78
2022/11/29 04:35:41;;;;;;;172.48;30.92;;;;;;;6.83;100.00;101533.00;5024848;28;20042;-78
2022/11/29 04:38:33;;;;;;;152.40;28.80;;;;;;;6.83;100.00;101532.13;5025967;28;20050;-76
2022/11/29 04:41:40;;;;;;;131.80;29.38;;;;;;;6.81;100.00;101528.59;5027940;28;20056;-76
2022/11/29 04:44:56;;;;;;;102.00;26.90;;;;;;;6.80;100.00;101526.78;5001659;28;20510;-76
2022/11/29 04:47:54;;;;;;;120.35;28.15;;;;;;;6.80;100.00;101537.25;4992465;28;20799;-76
2022/11/29 04:50:39;;;;;;;117.60;28.35;;;;;;;6.79;100.00;101541.63;5034210;28;20527;-76
2022/11/29 04:53:36;;;;;;;121.72;29.15;;;;;;;6.79;100.00;101543.38;5026552;28;20049;-76
2022/11/29 04:56:26;;;;;;;99.88;26.63;;;;;;;6.79;100.00;101552.09;4983003;28;20061;-76
2022/11/29 04:59:22;;;;;;;112.85;27.05;;;;;;;6.78;100.00;101559.91;5023613;28;20060;-76
2022/11/29 05:02:28;;;;;;;118.93;27.98;;;;;;;6.77;100.00;101560.78;4999534;28;20414;-76
2022/11/29 05:05:13;;;;;;;97.63;27.17;;;;;;;6.74;100.00;101568.53;4995576;28;20394;-76
2022/11/29 05:08:12;;;;;;;78.25;23.83;;;;;;;6.74;100.00;101563.28;5023769;28;20045;-76
2022/11/29 05:10:58;;;;;;;100.63;28.48;;;;;;;6.74;100.00;101571.16;5029868;28;20050;-77
2022/11/29 05:14:04;;;;;;;103.90;27.95;;;;;;;6.75;100.00;101570.31;5022038;28;20049;-77
2022/11/29 05:16:39;;;;;;;95.28;25.95;;;;;;;6.75;100.00;101572.94;5034291;28;20406;-77
2022/11/29 05:19:26;;;;;;;131.10;29.27;;;;;;;6.76;100.00;101575.56;4998193;28;20041;-76
2022/11/29 05:22:16;;;;;;;113.20;27.45;;;;;;;6.77;100.00;101579.09;5020777;28;20057;-76
2022/11/29 05:24:51;;;;;;;161.53;30.97;;;;;;;6.76;100.00;101580.81;5041721;28;20056;-77
2022/11/29 05:27:46;;;;;;;138.52;30.73;;;;;;;6.75;100.00;101579.06;5031400;28;20799;-77
2022/11/29 05:30:18;;;;;;;136.55;31.52;;;;;;;6.75;100.00;101580.78;5032144;28;20038;-77
2022/11/29 05:33:11;;;;;;;131.20;29.73;;;;;;;6.74;100.00;101579.88;5042429;28;20514;-77
2022/11/29 05:35:52;;;;;;;139.65;32.03;;;;;;;6.74;100.00;101585.13;4998316;28;20053;-77
2022/11/29 05:38:51;;;;;;;116.35;28.38;;;;;;;6.74;100.00;101589.47;5013180;28;20049;-77
2022/11/29 05:41:45;;;;;;;101.45;27.17;;;;;;;6.73;100.00;101587.69;5022112;28;20068;-77
2022/11/29 05:44:32;;;;;;;162.32;31.05;;;;;;;6.72;100.00;101589.44;5007017;28;20045;-76
2022/11/29 05:47:04;;;;;;;135.63;30.48;;;;;;;6.72;100.00;101599.91;5025470;28;20049;-77
2022/11/29 05:49:57;;;;;;;142.52;31.13;;;;;;;6.70;100.00;101600.72;5027082;28;20049;-77
2022/11/29 05:52:40;;;;;;;161.45;32.63;;;;;;;6.71;100.00;101599.84;5008553;28;20045;-78
2022/11/29 05:55:42;;;;;;;112.35;29.42;;;;;;;6.70;100.00;101605.94;5016668;28;20047;-78
2022/11/29 05:58:22;;;;;;;107.47;27.77;;;;;;;6.70;100.00;101604.22;5019007;28;20080;-76
2022/11/29 06:01:13;;;;;;;108.85;29.70;;;;;;;6.70;100.00;101608.56;5023802;28;20105;-76
2022/11/29 06:04:00;;;;;;;138.73;30.58;;;;;;;6.69;100.00;101612.00;5024085;28;20041;-76
2022/11/29 06:06:43;;;;;;;113.97;30.08;;;;;;;6.67;100.00;101616.31;4998995;28;20144;-77
2022/11/29 06:09:43;;;;;;;104.50;29.00;;;;;;;6.66;100.00;101617.19;5018668;28;20042;-76
2022/11/29 06:12:17;;;;;;;102.72;28.27;;;;;;;6.65;100.00;101621.50;5011037;28;20767;-76
2022/11/29 06:15:10;;;;;;;97.88;28.50;;;;;;;6.66;100.00;101611.94;5027994;28;20052;-77
2022/11/29 06:18:00;;;;;;;90.93;27.17;;;;;;;6.66;100.00;101611.94;5027388;28;20075;-76
2022/11/29 06:20:47;;;;;;;100.67;28.20;;;;;;;6.64;100.00;101620.63;5007802;28;20048;-78
2022/11/29 06:23:47;;;;;;;105.45;30.45;;;;;;;6.64;100.00;101625.84;4981848;28;20049;-76
2022/11/29 06:26:21;;;;;;;86.03;23.17;;;;;;;6.64;100.00;101623.25;5022809;28;20675;-77
2022/11/29 06:29:17;;;;;;;102.38;28.27;;;;;;;6.63;100.00;101628.41;5041600;28;20054;-77
2022/11/29 06:31:52;;;;;;;105.80;28.13;;;;;;;6.62;100.00;101627.53;5025323;28;20064;-77
2022/11/29 06:34:45;;;;;;;96.72;27.90;;;;;;;6.63;100.00;101626.72;5017393;28;20066;-77
2022/11/29 06:37:48;;;;;;;100.80;28.48;;;;;;;6.64;100.00;101641.56;4979939;28;20298;-76
2022/11/29 06:40:16;;;;;;;103.90;28.08;;;;;;;6.64;100.00;101638.97;4980544;28;20068;-77
2022/11/29 06:42:45;;;;;;;72.63;24.40;;;;;;;6.65;100.00;101642.47;4993368;28;20403;-77
2022/11/29 06:45:14;;;;;;;63.50;23.70;;;;;;;6.64;100.00;101638.97;5014652;28;20041;-77
2022/11/29 06:48:04;;;;;;;122.63;30.05;;;;;;;6.63;100.00;101641.53;5042828;28;20053;-77
2022/11/29 06:50:39;;;;;;;82.35;25.67;;;;;;;6.62;100.00;101645.88;5021815;28;20053;-78
2022/11/29 06:53:42;;;;;;;94.13;27.63;;;;;;;6.62;100.00;101648.50;4990399;28;20045;-77
2022/11/29 06:56:22;;;;;;;92.95;26.38;;;;;;;6.63;100.00;101652.91;5011017;28;20022;-77
2022/11/29 06:59:07;;;;;;;97.97;28.05;;;;;;;6.63;100.00;101658.16;5010959;28;20058;-77
2022/11/29 07:02:08;;;;;;;78.95;25.02;;;;;;;6.62;100.00;101656.34;5017257;28;20065;-77
2022/11/29 07:04:51;;;;;;;;;;;;;;;6.61;100.00;101661.53;5015431;28;20133;-77
2022/11/29 07:07:22;;;;;;;76.57;24.20;;;;;;;6.60;100.00;101665.88;4985835;28;19928;-77
2022/11/29 07:09:57;;;;;;;60.17;22.50;;;;;;;6.59;100.00;101657.97;4970739;28;20434;-77
2022/11/29 07:12:26;;;;;;;56.80;21.85;;;;;;;6.60;100.00;101667.63;4982812;28;20045;-77
2022/11/29 07:14:54;;;;;;;50.92;20.33;;;;;;;6.60;100.00;101665.88;5009686;28;20061;-77
2022/11/29 07:18:04;;;;;;;70.75;22.15;;;;;;;6.60;100.00;101665.00;5022798;28;20050;-77
2022/11/29 07:20:49;;;;;;;51.22;18.75;;;;;;;6.58;100.00;101670.19;5026908;28;20045;-77
2022/11/29 07:23:38;;;;;;;60.60;20.30;;;;;;;6.57;100.00;101675.38;5025283;28;20479;-77
2022/11/29 07:26:20;;;;;;;60.38;21.45;;;;;;;6.55;100.00;101670.06;4983768;28;20068;-77
2022/11/29 07:29:07;;;;;;;74.82;22.73;;;;;;;6.55;100.00;101663.97;5015399;28;20060;-77
2022/11/29 07:32:05;;;;;;;59.45;20.92;;;;;;;6.55;100.00;101666.59;4993849;28;20058;-77
2022/11/29 07:34:40;;;;;;;59.38;20.27;;;;;;;6.57;100.00;101670.13;4994757;28;20491;-77
2022/11/29 07:37:32;;;;;;;56.60;20.60;;;;;;;6.57;100.00;101676.25;4993236;28;22558;-77
2022/11/29 07:40:24;;;;;;;48.90;20.08;;;;;;;6.59;100.00;101674.56;4941913;28;20088;-77
2022/11/29 07:43:11;;;;;;;43.58;17.77;;;;;;;6.59;100.00;101671.94;4975671;28;20499;-77
2022/11/29 07:45:40;;;;;;;50.10;19.55;;;;;;;6.61;100.00;101677.25;5014728;28;20057;-77
2022/11/29 07:48:10;;;;;;;55.13;20.90;;;;;;;6.62;100.00;101684.28;4966657;28;20769;-77
2022/11/29 07:50:39;;;;;;;52.90;20.23;;;;;;;6.62;100.00;101679.94;5002581;28;20057;-77
2022/11/29 07:53:19;;;;;;;54.70;20.15;;;;;;;6.64;100.00;101682.59;4987165;28;20046;-77
2022/11/29 07:55:48;;;;;;;43.08;17.92;;;;;;;6.65;100.00;101686.97;4961874;28;20491;-76
2022/11/29 07:58:18;;;;;;;35.17;16.92;;;;;;;6.68;100.00;101689.72;4989493;28;20085;-76
2022/11/29 08:00:46;;;;;;;47.30;19.02;;;;;;;6.70;100.00;101687.16;5005703;28;20054;-76
2022/11/29 08:03:14;;;;;;;56.50;17.95;;;;;;;6.70;100.00;101688.03;4983756;28;20038;-76
2022/11/29 08:05:46;;;;;;;54.65;19.15;;;;;;;6.72;100.00;101693.31;5001782;28;20050;-75
2022/11/29 08:08:15;;;;;;;42.25;18.05;;;;;;;6.74;100.00;101694.25;5010295;28;20030;-76
2022/11/29 08:10:44;;;;;;;41.55;18.25;;;;;;;6.75;100.00;101698.69;4969570;28;20395;-76
2022/11/29 08:13:12;;;;;;;42.25;16.95;;;;;;;6.77;100.00;101704.84;5002624;28;20057;-78
2022/11/29 08:15:44;;;;;;;63.47;19.45;;;;;;;6.79;100.00;101701.44;5013346;28;20515;-78
2022/11/29 08:18:14;;;;;;;42.08;17.70;;;;;;;6.80;100.00;101702.31;5006203;28;20046;-77
2022/11/29 08:20:44;;;;;;;54.40;18.30;;;;;;;6.81;100.00;101704.09;5011756;28;20050;-78
2022/11/29 08:23:13;;;;;;;39.08;17.17;;;;;;;6.82;100.00;101704.16;5007500;28;20053;-78
2022/11/29 08:25:44;;;;;;;49.38;18.05;;;;;;;6.83;100.00;101702.41;5004046;28;20597;-78
2022/11/29 08:28:13;;;;;;;49.75;19.30;;;;;;;6.84;100.00;101709.41;4974155;28;20068;-78
2022/11/29 08:30:41;;;;;;;44.17;17.50;;;;;;;6.85;100.00;101702.47;5015329;28;20065;-78
2022/11/29 08:33:10;;;;;;;40.38;17.15;;;;;;;6.84;100.00;101712.03;5002286;28;20044;-79
2022/11/29 08:35:38;;;;;;;37.15;16.50;;;;;;;6.86;100.00;101715.59;5033121;28;20384;-78
2022/11/29 08:38:07;;;;;;;47.70;17.58;;;;;;;6.88;100.00;101713.94;5024970;28;20494;-78
2022/11/29 08:40:36;;;;;;;57.50;18.27;;;;;;;6.90;100.00;101720.13;5021552;28;20495;-77
2022/11/29 08:43:04;;;;;;;54.80;17.70;;;;;;;6.92;100.00;101718.44;4976480;28;20033;-78
2022/11/29 08:45:34;;;;;;;49.42;16.75;;;;;;;6.95;100.00;101720.25;4993477;28;20048;-78
2022/11/29 08:48:02;;;;;;;39.75;16.45;;;;;;;6.98;100.00;101721.25;5028398;28;20064;-78
2022/11/29 08:50:31;;;;;;;45.70;16.65;;;;;;;7.00;100.00;101726.53;5027944;28;20041;-77
2022/11/29 08:55:46;;;;;;;38.55;16.42;;;;;;;7.05;100.00;101730.22;5019301;28;20053;-77
2022/11/29 08:58:14;;;;;;;33.20;14.63;;;;;;;7.08;100.00;101732.03;4970938;28;20056;-78
2022/11/29 09:00:45;;;;;;;42.55;15.88;;;;;;;7.11;100.00;101732.13;5003740;28;20525;-78
2022/11/29 09:06:10;;;;;;;39.13;15.02;;;;;;;7.17;100.00;101721.84;5003132;28;20053;-79
2022/11/29 09:08:44;;;;;;;37.17;15.60;;;;;;;7.19;100.00;101725.38;4999857;28;20041;-78
2022/11/29 09:11:19;;;;;;;36.58;14.85;;;;;;;7.22;100.00;101742.09;5005794;28;20045;-78
2022/11/29 09:13:50;;;;;;;27.95;13.73;;;;;;;7.25;100.00;101733.44;4974714;28;20054;-78
2022/11/29 09:16:22;;;;;;;41.35;15.80;;;;;;;7.29;100.00;101732.69;5029719;28;20061;-80
2022/11/29 09:18:53;;;;;;;35.50;14.93;;;;;;;7.32;100.00;101735.41;5030547;28;20061;-77
2022/11/29 09:21:24;;;;;;;44.50;15.13;;;;;;;7.34;100.00;101736.34;5029895;28;20037;-77
2022/11/29 09:23:58;;;;;;;31.42;13.45;;;;;;;7.37;100.00;101741.69;4997796;28;20050;-78
2022/11/29 09:26:31;;;;;;;36.03;15.15;;;;;;;7.39;100.00;101745.25;5016384;28;20046;-78
2022/11/29 09:29:02;;;;;;;36.03;13.77;;;;;;;7.42;100.00;101745.31;4995072;28;20049;-78
2022/11/29 09:31:33;;;;;;;40.58;15.55;;;;;;;7.48;100.00;101746.34;5016871;28;20442;-78
2022/11/29 09:34:01;;;;;;;33.90;16.30;;;;;;;7.52;100.00;101751.72;5008276;28;20418;-78
2022/11/29 09:36:30;;;;;;;37.92;14.30;;;;;;;7.58;100.00;101761.50;5021913;28;20057;-78
2022/11/29 09:39:03;;;;;;;34.33;14.18;;;;;;;7.61;100.00;101762.50;5021917;28;20046;-78
2022/11/29 09:42:10;;;;;;;30.50;14.10;;;;;;;7.67;100.00;101761.78;5015956;28;20038;-78
2022/11/29 09:44:59;;;;;;;33.67;14.73;;;;;;;7.72;100.00;101765.44;4982167;28;20518;-78
2022/11/29 09:47:47;;;;;;;30.13;14.40;;;;;;;7.78;100.00;101775.25;5008178;28;20038;-78
2022/11/29 09:50:33;;;;;;;31.73;15.23;;;;;;;7.83;100.00;101780.66;5017872;28;20060;-78
2022/11/29 09:53:05;;;;;;;36.35;13.60;;;;;;;7.87;100.00;101774.63;5026533;28;20033;-77
2022/11/29 09:56:08;;;;;;;34.58;14.43;;;;;;;7.92;100.00;101778.25;5012405;28;20052;-78
2022/11/29 09:58:47;;;;;;;32.90;15.25;;;;;;;7.96;100.00;101785.41;5002992;28;20415;-78
2022/11/29 10:01:27;;;;;;;29.65;13.77;;;;;;;7.98;100.00;101784.59;5016235;28;20410;-78
2022/11/29 10:04:16;;;;;;;34.97;13.85;;;;;;;8.02;100.00;101782.94;5022948;28;20513;-78
2022/11/29 10:06:54;;;;;;;31.25;14.75;;;;;;;8.04;100.00;101778.63;5006235;28;20056;-78
2022/11/29 10:09:43;;;;;;;32.25;14.38;;;;;;;8.08;100.00;101792.72;5015615;28;20053;-78
2022/11/29 10:12:17;;;;;;;37.47;16.10;;;;;;;8.09;100.00;101779.66;5026610;28;20053;-78
2022/11/29 10:14:53;;;;;;;35.78;17.40;;;;;;;8.09;100.00;101789.25;5002576;28;20056;-78
2022/11/29 10:17:28;;;;;;;38.95;17.10;;;;;;;8.06;100.00;101784.81;5037953;28;20052;-78
2022/11/29 10:20:03;;;;;;;31.15;16.92;;;;;;;8.05;100.00;101790.00;5035361;28;20037;-77
2022/11/29 10:22:42;;;;;;;32.90;15.90;;;;;;;8.02;100.00;101785.56;5007175;28;20049;-78
2022/11/29 10:25:21;;;;;;;32.47;15.77;;;;;;;8.02;100.00;101784.69;5023924;28;20045;-78
2022/11/29 10:27:50;;;;;;;31.90;16.67;;;;;;;7.99;100.00;101785.47;5034844;28;20038;-78
2022/11/29 10:30:19;;;;;;;35.65;16.48;;;;;;;7.98;100.00;101783.72;4992628;28;20065;-78
2022/11/29 10:32:55;;;;;;;24.85;14.18;;;;;;;7.98;100.00;101786.34;5025124;28;20049;-78
2022/11/29 10:35:23;;;;;;;30.83;14.77;;;;;;;7.97;100.00;101790.66;4985664;28;20048;-78
2022/11/29 10:37:57;;;;;;;23.40;13.35;;;;;;;7.97;100.00;101792.41;5008386;28;20425;-77
2022/11/29 10:40:50;;;;;;;29.48;13.80;;;;;;;7.99;100.00;101795.97;5024364;28;20049;-77
2022/11/29 10:43:19;;;;;;;29.83;14.73;;;;;;;7.96;100.00;101790.66;5024753;28;20079;-78
2022/11/29 10:45:52;;;;;;;28.60;14.80;;;;;;;7.95;100.00;101788.84;4988626;28;20061;-77
2022/11/29 10:48:26;;;;;;;25.98;14.25;;;;;;;7.97;100.00;101792.41;5004114;28;24808;-78
2022/11/29 10:50:54;;;;;;;30.45;15.73;;;;;;;7.98;100.00;101789.84;5015887;28;20046;-77
2022/11/29 10:53:34;;;;;;;37.85;16.23;;;;;;;8.00;100.00;101797.75;5003786;28;20410;-78
2022/11/29 10:56:08;;;;;;;35.15;15.68;;;;;;;8.00;100.00;101792.50;5022036;28;20056;-77
2022/11/29 10:58:54;;;;;;;29.77;14.93;;;;;;;8.01;100.00;101804.78;5028761;28;20052;-78
2022/11/29 11:01:24;;;;;;;31.02;14.43;;;;;;;8.00;100.00;101803.00;4992677;28;20049;-78
2022/11/29 11:03:54;;;;;;;28.13;13.50;;;;;;;8.01;100.00;101804.78;5028351;28;20037;-78
2022/11/29 11:06:26;;;;;;;27.02;14.98;;;;;;;8.00;100.00;101805.63;5009145;28;20061;-78
2022/11/29 11:09:17;;;;;;;23.92;13.13;;;;;;;7.97;100.00;101802.91;5021550;28;20046;-78
2022/11/29 11:12:15;;;;;;;23.30;13.77;;;;;;;7.96;100.00;101809.03;5028851;28;20040;-78
2022/11/29 11:14:45;;;;;;;24.77;14.00;;;;;;;7.96;100.00;101806.41;5015126;28;20053;-78
2022/11/29 11:17:24;;;;;;;26.70;13.60;;;;;;;7.97;100.00;101808.16;4990382;28;20814;-80
2022/11/29 11:20:18;;;;;;;24.20;13.88;;;;;;;7.97;100.00;101810.78;5030611;28;20391;-78
2022/11/29 11:23:02;;;;;;;23.83;13.93;;;;;;;7.95;100.00;101813.34;5015704;28;20056;-78
2022/11/29 11:25:37;;;;;;;22.75;13.43;;;;;;;7.93;100.00;101825.53;5012845;28;20518;-78
2022/11/29 11:28:20;;;;;;;21.58;12.27;;;;;;;7.89;100.00;101814.94;5025690;28;20053;-77
2022/11/29 11:30:51;;;;;;;26.77;13.52;;;;;;;7.86;100.00;101818.31;4996866;28;20045;-79
2022/11/29 11:33:28;;;;;;;26.17;13.05;;;;;;;7.83;100.00;101828.75;5021460;28;20046;-87
2022/11/29 11:36:18;;;;;;;24.15;14.73;;;;;;;7.81;100.00;101823.47;4999818;28;20046;-77
2022/11/29 11:38:57;;;;;;;18.17;9.70;;;;;;;7.79;100.00;101829.50;5035138;28;20060;-77
2022/11/29 11:44:35;;;;;;;31.80;14.75;;;;;;;7.75;100.00;101832.84;5020432;28;20046;-78
2022/11/29 11:47:31;;;;;;;33.65;15.13;;;;;;;7.74;100.00;101839.84;4976812;28;20048;-78
2022/11/29 11:50:01;;;;;;;32.05;14.13;;;;;;;7.74;100.00;101839.84;5025637;28;20049;-77
2022/11/29 11:52:39;;;;;;;29.35;14.40;;;;;;;7.70;100.00;101835.34;5010674;28;20052;-77
2022/11/29 11:55:35;;;;;;;26.63;13.48;;;;;;;7.70;100.00;101834.47;5007594;28;20068;-77
2022/11/29 11:58:04;;;;;;;35.25;15.65;;;;;;;7.67;100.00;101844.88;5017584;28;20041;-80
2022/11/29 12:00:42;;;;;;;38.75;15.85;;;;;;;7.66;100.00;101850.97;5034303;28;20052;-80
2022/11/29 12:03:44;;;;;;;38.03;16.40;;;;;;;7.61;100.00;101850.81;5004641;28;20044;-79
2022/11/29 12:06:30;;;;;;;41.40;16.85;;;;;;;7.59;100.00;101842.88;5023684;28;20050;-79
2022/11/29 12:09:24;;;;;;;47.13;17.60;;;;;;;7.56;100.00;101849.75;5026576;28;20053;-79
2022/11/29 12:12:11;;;;;;;45.17;17.27;;;;;;;7.55;100.00;101853.25;5001087;28;20050;-79
2022/11/29 12:14:55;;;;;;;41.13;16.20;;;;;;;7.54;100.00;101854.06;5012029;28;20398;-79